createdAt,value
2023-04-22T03:58:38.488Z,1002.88
2023-04-22T03:59:38.755Z,1002.86
2023-04-22T04:00:38.469Z,1002.88
2023-04-22T04:01:38.409Z,1002.85
2023-04-22T04:02:38.695Z,1002.84
2023-04-22T04:03:38.732Z,1002.87
2023-04-22T04:04:38.702Z,1002.84
2023-04-22T04:05:38.468Z,1002.79
2023-04-22T04:06:38.386Z,1002.81
2023-04-22T04:07:38.408Z,1002.78
2023-04-22T04:08:38.403Z,1002.78
2023-04-22T04:09:38.767Z,1002.78
2023-04-22T04:10:38.352Z,1002.78
2023-04-22T04:11:38.400Z,1002.73
2023-04-22T04:12:38.378Z,1002.75
2023-04-22T04:13:38.412Z,1002.74
2023-04-22T04:14:38.360Z,1002.75
2023-04-22T04:15:38.381Z,1002.73
2023-04-22T04:16:38.371Z,1002.73
2023-04-22T04:17:38.424Z,1002.75
2023-04-22T04:18:38.332Z,1002.78
2023-04-22T04:19:38.775Z,1002.78
2023-04-22T04:20:38.332Z,1002.80
2023-04-22T04:21:38.323Z,1002.78
2023-04-22T04:22:38.302Z,1002.76
2023-04-22T04:23:38.357Z,1002.80
2023-04-22T04:24:38.301Z,1002.76
2023-04-22T04:25:38.336Z,1002.81
2023-04-22T04:26:38.289Z,1002.80
2023-04-22T04:27:38.309Z,1002.75
2023-04-22T04:28:38.320Z,1002.71
2023-04-22T04:29:38.493Z,1002.74
2023-04-22T04:30:38.295Z,1002.70
2023-04-22T04:31:38.332Z,1002.72
2023-04-22T04:32:38.315Z,1002.72
2023-04-22T04:33:38.276Z,1002.72
2023-04-22T04:34:38.273Z,1002.73
2023-04-22T04:35:38.242Z,1002.73
2023-04-22T04:36:38.266Z,1002.72
2023-04-22T04:37:38.249Z,1002.72
2023-04-22T04:38:38.252Z,1002.71
2023-04-22T04:39:38.518Z,1002.72
2023-04-22T04:40:38.236Z,1002.78
2023-04-22T04:41:38.222Z,1002.80
2023-04-22T04:42:38.239Z,1002.79
2023-04-22T04:43:38.232Z,1002.79
2023-04-22T04:44:38.242Z,1002.73
2023-04-22T04:45:38.203Z,1002.76
2023-04-22T04:46:38.270Z,1002.72
2023-04-22T04:47:38.297Z,1002.71
2023-04-22T04:48:38.215Z,1002.78
2023-04-22T04:49:38.476Z,1002.81
2023-04-22T04:50:38.181Z,1002.80
2023-04-22T04:51:38.209Z,1002.77
2023-04-22T04:52:38.199Z,1002.76
2023-04-22T04:53:38.193Z,1002.75
2023-04-22T04:54:38.183Z,1002.79
2023-04-22T04:55:38.195Z,1002.74
2023-04-22T04:56:38.188Z,1002.82
2023-04-22T04:57:38.625Z,1002.72
2023-04-22T04:58:38.150Z,1002.77
2023-04-22T04:59:38.411Z,1002.74
2023-04-22T05:00:38.146Z,1002.76
2023-04-22T05:01:38.189Z,1002.78
2023-04-22T05:02:38.297Z,1002.80
2023-04-22T05:03:38.372Z,1002.81
2023-04-22T05:04:38.270Z,1002.82
2023-04-22T05:05:38.125Z,1002.83
2023-04-22T05:06:38.156Z,1002.82
2023-04-22T05:07:38.151Z,1002.79
2023-04-22T05:08:38.147Z,1002.78
2023-04-22T05:09:38.404Z,1002.80
2023-04-22T05:10:38.167Z,1002.79
2023-04-22T05:11:38.122Z,1002.80
2023-04-22T05:12:38.166Z,1002.78
2023-04-22T05:13:38.103Z,1002.85
2023-04-22T05:14:38.117Z,1002.78
2023-04-22T05:15:38.116Z,1002.78
2023-04-22T05:16:38.157Z,1002.76
2023-04-22T05:17:38.167Z,1002.77
2023-04-22T05:18:38.109Z,1002.75
2023-04-22T05:19:38.262Z,1002.75
2023-04-22T05:20:38.092Z,1002.73
2023-04-22T05:21:38.082Z,1002.73
2023-04-22T05:22:38.109Z,1002.73
2023-04-22T05:23:38.089Z,1002.71
2023-04-22T05:24:38.092Z,1002.78
2023-04-22T05:25:38.069Z,1002.71
2023-04-22T05:26:38.063Z,1002.69
2023-04-22T05:27:38.081Z,1002.68
2023-04-22T05:28:38.068Z,1002.72
2023-04-22T05:29:38.431Z,1002.71
2023-04-22T05:30:38.053Z,1002.73
2023-04-22T05:31:38.131Z,1002.73
2023-04-22T05:32:38.115Z,1002.71
2023-04-22T05:33:38.038Z,1002.69
2023-04-22T05:34:38.072Z,1002.70
2023-04-22T05:35:38.028Z,1002.64
2023-04-22T05:36:38.055Z,1002.67
2023-04-22T05:37:38.031Z,1002.68
2023-04-22T05:38:38.047Z,1002.62
2023-04-22T05:39:38.229Z,1002.64
2023-04-22T05:40:38.020Z,1002.60
2023-04-22T05:41:38.013Z,1002.63
2023-04-22T05:42:38.030Z,1002.58
2023-04-22T05:43:38.004Z,1002.59
2023-04-22T05:44:38.004Z,1002.62
2023-04-22T05:45:38.041Z,1002.66
2023-04-22T05:46:38.198Z,1002.69
2023-04-22T05:47:38.007Z,1002.68
2023-04-22T05:48:37.992Z,1002.70
2023-04-22T05:49:38.250Z,1002.75
2023-04-22T05:50:38.004Z,1002.76
2023-04-22T05:51:37.975Z,1002.74
2023-04-22T05:52:37.995Z,1002.78
2023-04-22T05:53:38.000Z,1002.79
2023-04-22T05:54:37.986Z,1002.75
2023-04-22T05:55:37.962Z,1002.79
2023-04-22T05:56:37.972Z,1002.72
2023-04-22T05:57:37.981Z,1002.72
2023-04-22T05:58:38.003Z,1002.75
2023-04-22T05:59:38.138Z,1002.74
2023-04-22T06:00:37.947Z,1002.77
2023-04-22T06:01:37.974Z,1002.83
2023-04-22T06:02:38.135Z,1002.81
2023-04-22T06:03:38.138Z,1002.82
2023-04-22T06:04:38.480Z,1002.84
2023-04-22T06:05:38.139Z,1002.83
2023-04-22T06:06:38.018Z,1002.85
2023-04-22T06:07:37.930Z,1002.88
2023-04-22T06:08:37.918Z,1002.83
2023-04-22T06:09:38.244Z,1002.81
2023-04-22T06:10:37.927Z,1002.82
2023-04-22T06:11:37.943Z,1002.82
2023-04-22T06:12:37.907Z,1002.84
2023-04-22T06:13:37.985Z,1002.84
2023-04-22T06:14:37.906Z,1002.87
2023-04-22T06:15:37.961Z,1002.84
2023-04-22T06:16:37.900Z,1002.84
2023-04-22T06:17:37.931Z,1002.83
2023-04-22T06:18:38.370Z,1002.83
2023-04-22T06:19:38.068Z,1002.82
2023-04-22T06:20:37.901Z,1002.83
2023-04-22T06:21:37.886Z,1002.82
2023-04-22T06:22:37.946Z,1002.87
2023-04-22T06:23:37.884Z,1002.87
2023-04-22T06:24:37.917Z,1002.87
2023-04-22T06:25:37.876Z,1002.88
2023-04-22T06:26:37.885Z,1002.86
2023-04-22T06:27:37.859Z,1002.83
2023-04-22T06:28:37.869Z,1002.87
2023-04-22T06:29:37.973Z,1002.86
2023-04-22T06:30:37.875Z,1002.89
2023-04-22T06:31:37.990Z,1002.80
2023-04-22T06:32:37.902Z,1002.86
2023-04-22T06:33:37.874Z,1002.80
2023-04-22T06:34:37.849Z,1002.85
2023-04-22T06:35:37.846Z,1002.84
2023-04-22T06:36:37.871Z,1002.81
2023-04-22T06:37:37.868Z,1002.78
2023-04-22T06:38:37.937Z,1002.79
2023-04-22T06:41:10.547Z,1002.76
2023-04-22T06:42:10.370Z,1002.72
2023-04-22T06:43:10.432Z,1002.65
2023-04-22T06:44:10.372Z,1002.65
2023-04-22T06:45:10.343Z,1002.65
2023-04-22T06:46:10.501Z,1002.65
2023-04-22T06:47:10.333Z,1002.61
2023-04-22T06:48:10.340Z,1002.63
2023-04-22T06:49:10.341Z,1002.62
2023-04-22T06:50:10.336Z,1002.64
2023-04-22T06:51:10.383Z,1002.61
2023-04-22T06:52:10.338Z,1002.64
2023-04-22T06:53:10.318Z,1002.62
2023-04-22T06:54:10.372Z,1002.67
2023-04-22T06:55:10.335Z,1002.69
2023-04-22T06:56:10.336Z,1002.64
2023-04-22T06:57:10.343Z,1002.65
2023-04-22T06:58:10.303Z,1002.64
2023-04-22T06:59:10.305Z,1002.59
2023-04-22T07:00:10.302Z,1002.60
2023-04-22T07:01:10.331Z,1002.57
2023-04-22T07:02:10.370Z,1002.54
2023-04-22T07:03:10.428Z,1002.52
2023-04-22T07:04:10.365Z,1002.53
2023-04-22T07:05:10.316Z,1002.54
2023-04-22T07:06:10.335Z,1002.50
2023-04-22T07:07:10.308Z,1002.53
2023-04-22T07:08:10.296Z,1002.51
2023-04-22T07:09:10.297Z,1002.52
2023-04-22T07:10:10.300Z,1002.48
2023-04-22T07:11:11.031Z,1002.47
2023-04-22T07:12:10.282Z,1002.49
2023-04-22T07:13:10.300Z,1002.48
2023-04-22T07:14:10.284Z,1002.46
2023-04-22T07:15:10.270Z,1002.46
2023-04-22T07:16:10.282Z,1002.47
2023-04-22T07:17:10.295Z,1002.46
2023-04-22T07:18:10.274Z,1002.45
2023-04-22T07:19:10.255Z,1002.52
2023-04-22T07:20:10.253Z,1002.52
2023-04-22T07:21:10.260Z,1002.50
2023-04-22T07:22:10.270Z,1002.51
2023-04-22T07:23:10.269Z,1002.55
2023-04-22T07:24:10.246Z,1002.59
2023-04-22T07:25:10.252Z,1002.55
2023-04-22T07:26:10.262Z,1002.60
2023-04-22T07:27:10.321Z,1002.58
2023-04-22T07:28:10.262Z,1002.56
2023-04-22T07:29:10.232Z,1002.60
2023-04-22T07:30:10.261Z,1002.58
2023-04-22T07:31:10.274Z,1002.56
2023-04-22T07:32:10.256Z,1002.54
2023-04-22T07:33:10.247Z,1002.50
2023-04-22T07:34:10.242Z,1002.50
2023-04-22T07:35:10.242Z,1002.46
2023-04-22T07:36:10.232Z,1002.52
2023-04-22T07:37:10.253Z,1002.55
2023-04-22T07:38:11.658Z,1002.58
2023-04-22T07:39:10.275Z,1002.63
2023-04-22T07:40:10.214Z,1002.61
2023-04-22T07:41:10.221Z,1002.65
2023-04-22T07:42:10.254Z,1002.64
2023-04-22T07:43:10.256Z,1002.62
2023-04-22T07:44:10.209Z,1002.64
2023-04-22T07:45:10.249Z,1002.63
2023-04-22T07:46:10.247Z,1002.66
2023-04-22T07:47:10.215Z,1002.66
2023-04-22T07:48:10.278Z,1002.69
2023-04-22T07:49:10.221Z,1002.68
2023-04-22T07:50:10.230Z,1002.65
2023-04-22T07:51:10.227Z,1002.61
2023-04-22T07:52:10.204Z,1002.56
2023-04-22T07:53:10.261Z,1002.54
2023-04-22T07:54:10.240Z,1002.52
2023-04-22T07:55:10.202Z,1002.51
2023-04-22T07:56:10.221Z,1002.51
2023-04-22T07:57:10.212Z,1002.54
2023-04-22T07:58:10.343Z,1002.52
2023-04-22T07:59:10.202Z,1002.52
2023-04-22T08:00:10.200Z,1002.50
2023-04-22T08:01:10.327Z,1002.52
2023-04-22T08:02:10.328Z,1002.51
2023-04-22T08:03:10.464Z,1002.53
2023-04-22T08:04:10.589Z,1002.49
2023-04-22T08:05:10.292Z,1002.45
2023-04-22T08:06:10.223Z,1002.41
2023-04-22T08:07:26.902Z,1002.39
2023-04-22T08:08:10.239Z,1002.34
2023-04-22T08:09:10.204Z,1002.29
2023-04-22T08:10:10.235Z,1002.27
2023-04-22T08:11:10.214Z,1002.23
2023-04-22T08:12:11.172Z,1002.25
2023-04-22T08:13:10.225Z,1002.27
2023-04-22T08:14:10.221Z,1002.27
2023-04-22T08:15:10.233Z,1002.34
2023-04-22T08:16:10.250Z,1002.35
2023-04-22T08:17:10.206Z,1002.33
2023-04-22T08:18:10.238Z,1002.37
2023-04-22T08:19:10.200Z,1002.40
2023-04-22T08:20:10.248Z,1002.35
2023-04-22T08:21:10.203Z,1002.41
2023-04-22T08:22:10.233Z,1002.38
2023-04-22T08:23:10.222Z,1002.32
2023-04-22T08:24:10.207Z,1002.37
2023-04-22T08:25:10.198Z,1002.37
2023-04-22T08:26:10.206Z,1002.38
2023-04-22T08:27:10.230Z,1002.38
2023-04-22T08:28:10.215Z,1002.40
2023-04-22T08:29:10.208Z,1002.37
2023-04-22T08:30:10.300Z,1002.39
2023-04-22T08:31:10.213Z,1002.37
2023-04-22T08:32:10.205Z,1002.37
2023-04-22T08:33:10.220Z,1002.37
2023-04-22T08:34:10.212Z,1002.40
2023-04-22T08:35:10.234Z,1002.44
2023-04-22T08:36:10.199Z,1002.44
2023-04-22T08:37:10.217Z,1002.42
2023-04-22T08:38:10.206Z,1002.39
2023-04-22T08:39:10.208Z,1002.42
2023-04-22T08:40:10.236Z,1002.38
2023-04-22T08:41:10.204Z,1002.38
2023-04-22T08:42:10.218Z,1002.37
2023-04-22T08:43:10.214Z,1002.37
2023-04-22T08:44:10.198Z,1002.31
2023-04-22T08:45:10.224Z,1002.27
2023-04-22T08:46:10.250Z,1002.29
2023-04-22T08:47:10.309Z,1002.31
2023-04-22T08:48:10.220Z,1002.21
2023-04-22T08:49:10.228Z,1002.25
2023-04-22T08:50:10.203Z,1002.22
2023-04-22T08:51:10.205Z,1002.21
2023-04-22T08:52:10.249Z,1002.19
2023-04-22T08:53:10.372Z,1002.19
2023-04-22T08:54:10.277Z,1002.21
2023-04-22T08:55:10.266Z,1002.23
2023-04-22T08:56:10.297Z,1002.19
2023-04-22T08:57:10.253Z,1002.17
2023-04-22T08:58:10.294Z,1002.17
2023-04-22T08:59:10.322Z,1002.20
2023-04-22T09:00:10.194Z,1002.17
2023-04-22T09:01:10.304Z,1002.16
2023-04-22T09:02:10.380Z,1002.18
2023-04-22T09:03:10.269Z,1002.18
2023-04-22T09:04:10.315Z,1002.16
2023-04-22T09:05:10.226Z,1002.13
2023-04-22T09:06:10.206Z,1002.13
2023-04-22T09:07:10.224Z,1002.10
2023-04-22T09:08:10.241Z,1002.11
2023-04-22T09:09:10.243Z,1002.13
2023-04-22T09:10:10.209Z,1002.10
2023-04-22T09:11:10.201Z,1002.13
2023-04-22T09:12:10.218Z,1002.09
2023-04-22T09:13:10.223Z,1002.10
2023-04-22T09:14:10.200Z,1002.09
2023-04-22T09:15:10.190Z,1002.08
2023-04-22T09:16:10.233Z,1002.07
2023-04-22T09:17:10.201Z,1002.09
2023-04-22T09:18:10.280Z,1002.10
2023-04-22T09:19:10.197Z,1002.03
2023-04-22T09:20:10.191Z,1002.06
2023-04-22T09:21:10.203Z,1002.02
2023-04-22T09:22:10.211Z,1002.00
2023-04-22T09:23:10.219Z,1002.01
2023-04-22T09:24:10.220Z,1001.99
2023-04-22T09:25:10.199Z,1002.01
2023-04-22T09:26:10.208Z,1002.01
2023-04-22T09:27:10.226Z,1001.97
2023-04-22T09:28:10.227Z,1001.97
2023-04-22T09:29:10.187Z,1002.00
2023-04-22T09:30:10.262Z,1001.97
2023-04-22T09:31:10.206Z,1001.97
2023-04-22T09:32:10.283Z,1002.00
2023-04-22T09:33:10.242Z,1001.97
2023-04-22T09:34:10.212Z,1002.00
2023-04-22T09:35:10.226Z,1001.95
2023-04-22T09:36:10.207Z,1001.93
2023-04-22T09:37:10.231Z,1001.90
2023-04-22T09:38:10.208Z,1001.90
2023-04-22T09:39:10.218Z,1001.89
2023-04-22T09:40:10.231Z,1001.90
2023-04-22T09:41:10.231Z,1001.90
2023-04-22T09:42:10.199Z,1001.90
2023-04-22T09:43:10.210Z,1001.91
2023-04-22T09:44:10.226Z,1001.91
2023-04-22T09:45:10.220Z,1001.88
2023-04-22T09:46:10.262Z,1001.87
2023-04-22T09:47:10.209Z,1001.88
2023-04-22T09:48:10.224Z,1001.88
2023-04-22T09:49:10.202Z,1001.87
2023-04-22T09:50:10.208Z,1001.85
2023-04-22T09:51:10.205Z,1001.85
2023-04-22T09:52:10.205Z,1001.86
2023-04-22T09:53:10.229Z,1001.83
2023-04-22T09:54:10.217Z,1001.86
2023-04-22T09:55:10.211Z,1001.82
2023-04-22T09:56:10.235Z,1001.84
2023-04-22T09:57:10.240Z,1001.85
2023-04-22T09:58:10.234Z,1001.87
2023-04-22T10:01:42.864Z,1001.84
2023-04-22T10:12:54.198Z,1001.74
2023-04-22T10:13:54.184Z,1001.72
2023-04-22T10:14:54.156Z,1001.67
2023-04-22T10:15:54.388Z,1001.71
2023-04-22T10:16:54.180Z,1001.63
2023-04-22T10:17:54.209Z,1001.68
2023-04-22T10:18:54.139Z,1001.63
2023-04-22T10:19:54.157Z,1001.63
2023-04-22T10:20:54.134Z,1001.62
2023-04-22T10:21:54.134Z,1001.58
2023-04-22T10:22:54.166Z,1001.57
2023-04-22T10:23:54.150Z,1001.56
2023-04-22T10:24:54.162Z,1001.52
2023-04-22T10:25:54.303Z,1001.53
2023-04-22T10:26:56.251Z,1001.47
2023-04-22T10:27:54.151Z,1001.49
2023-04-22T10:28:54.162Z,1001.45
2023-04-22T10:29:54.149Z,1001.49
2023-04-22T10:30:54.223Z,1001.49
2023-04-22T10:31:54.140Z,1001.50
2023-04-22T10:32:54.206Z,1001.41
2023-04-22T10:33:54.150Z,1001.43
2023-04-22T10:34:54.168Z,1001.38
2023-04-22T10:35:54.169Z,1001.36
2023-04-22T10:36:54.159Z,1001.36
2023-04-22T10:37:54.147Z,1001.31
2023-04-22T10:38:54.154Z,1001.29
2023-04-22T10:39:54.159Z,1001.28
2023-04-22T10:40:54.182Z,1001.25
2023-04-22T10:41:54.148Z,1001.27
2023-04-22T10:42:54.162Z,1001.23
2023-04-22T10:43:54.171Z,1001.26
2023-04-22T10:44:54.169Z,1001.23
2023-04-22T10:45:54.226Z,1001.23
2023-04-22T10:46:54.167Z,1001.19
2023-04-22T10:47:54.230Z,1001.23
2023-04-22T10:48:54.179Z,1001.18
2023-04-22T10:49:54.196Z,1001.22
2023-04-22T10:50:54.203Z,1001.20
2023-04-22T10:51:54.183Z,1001.23
2023-04-22T10:52:54.184Z,1001.22
2023-04-22T10:53:54.201Z,1001.21
2023-04-22T10:54:54.177Z,1001.20
2023-04-22T10:55:54.206Z,1001.19
2023-04-22T10:56:58.544Z,1001.17
2023-04-22T10:57:54.192Z,1001.14
2023-04-22T10:58:54.211Z,1001.06
2023-04-22T10:59:54.215Z,1001.06
2023-04-22T11:00:54.616Z,1001.03
2023-04-22T11:01:54.280Z,1000.97
2023-04-22T11:02:54.405Z,1000.96
2023-04-22T11:03:54.285Z,1000.96
2023-04-22T11:04:54.216Z,1001.01
2023-04-22T11:05:54.203Z,1000.92
2023-04-22T11:06:54.206Z,1000.92
2023-04-22T11:07:54.232Z,1000.91
2023-04-22T11:08:54.217Z,1000.91
2023-04-22T11:09:54.230Z,1000.92
2023-04-22T11:10:54.229Z,1000.92
2023-04-22T11:11:54.240Z,1000.84
2023-04-22T11:12:54.232Z,1000.83
2023-04-22T11:13:54.230Z,1000.78
2023-04-22T11:14:54.235Z,1000.77
2023-04-22T11:15:54.366Z,1000.80
2023-04-22T11:16:54.257Z,1000.75
2023-04-22T11:17:54.286Z,1000.79
2023-04-22T11:18:54.251Z,1000.82
2023-04-22T11:19:54.249Z,1000.81
2023-04-22T11:20:54.245Z,1000.78
2023-04-22T11:21:54.254Z,1000.79
2023-04-22T11:22:54.263Z,1000.72
2023-04-22T11:23:54.310Z,1000.73
2023-04-22T11:24:54.278Z,1000.76
2023-04-22T11:25:54.291Z,1000.76
2023-04-22T11:26:54.361Z,1000.69
2023-04-22T11:27:54.269Z,1000.78
2023-04-22T11:28:54.269Z,1000.75
2023-04-22T11:29:54.276Z,1000.71
2023-04-22T11:30:54.288Z,1000.71
2023-04-22T11:31:54.298Z,1000.65
2023-04-22T11:32:54.342Z,1000.86
2023-04-22T11:33:54.286Z,1000.59
2023-04-22T11:34:54.293Z,1000.71
2023-04-22T11:35:54.323Z,1000.74
2023-04-22T11:36:54.382Z,1000.77
2023-04-22T11:37:54.303Z,1000.68
2023-04-22T11:38:54.316Z,1000.66
2023-04-22T11:40:16.887Z,1000.64
2023-04-22T11:40:54.327Z,1000.67
2023-04-22T11:41:54.333Z,1000.68
2023-04-22T11:42:54.324Z,1000.67
2023-04-22T11:43:54.331Z,1000.68
2023-04-22T11:44:54.340Z,1000.63
2023-04-22T11:45:54.380Z,1000.64
2023-04-22T11:46:54.363Z,1000.65
2023-04-22T11:47:54.367Z,1000.59
2023-04-22T11:48:54.379Z,1000.61
2023-04-22T11:49:54.349Z,1000.60
2023-04-22T11:50:54.378Z,1000.61
2023-04-22T11:51:54.354Z,1000.57
2023-04-22T11:52:54.355Z,1000.59
2023-04-22T11:53:54.369Z,1000.55
2023-04-22T11:54:54.385Z,1000.57
2023-04-22T11:55:54.390Z,1000.50
2023-04-22T11:56:54.402Z,1000.55
2023-04-22T11:57:54.396Z,1000.50
2023-04-22T11:58:54.392Z,1000.47
2023-04-22T11:59:54.384Z,1000.47
2023-04-22T12:00:54.450Z,1000.46
2023-04-22T12:01:54.416Z,1000.36
2023-04-22T12:02:54.518Z,1000.33
2023-04-22T12:03:54.481Z,1000.43
2023-04-22T12:04:54.452Z,1000.39
2023-04-22T12:05:54.424Z,1000.44
2023-04-22T12:06:54.427Z,1000.39
2023-04-22T12:07:54.419Z,1000.37
2023-04-22T12:08:54.416Z,1000.39
2023-04-22T12:09:54.427Z,1000.36
2023-04-22T12:10:54.447Z,1000.37
2023-04-22T12:11:54.459Z,1000.34
2023-04-22T12:12:54.439Z,1000.36
2023-04-22T12:13:54.457Z,1000.36
2023-04-22T12:14:54.449Z,1000.28
2023-04-22T12:15:54.469Z,1000.33
2023-04-22T12:16:54.492Z,1000.27
2023-04-22T12:17:54.541Z,1000.28
2023-04-22T12:18:54.483Z,1000.31
2023-04-22T12:19:54.490Z,1000.29
2023-04-22T12:20:54.509Z,1000.23
2023-04-22T12:21:54.487Z,1000.22
2023-04-22T12:22:54.508Z,1000.21
2023-04-22T12:23:54.504Z,1000.23
2023-04-22T12:24:54.507Z,1000.19
2023-04-22T12:25:54.514Z,1000.15
2023-04-22T12:26:54.538Z,1000.10
2023-04-22T12:27:54.534Z,1000.15
2023-04-22T12:28:54.570Z,1000.16
2023-04-22T12:29:54.549Z,1000.15
2023-04-22T12:30:54.580Z,1000.18
2023-04-22T12:31:54.577Z,1000.20
2023-04-22T12:32:54.538Z,1000.19
2023-04-22T12:33:54.589Z,1000.23
2023-04-22T12:34:54.578Z,1000.20
2023-04-22T12:35:54.562Z,1000.21
2023-04-22T12:36:54.612Z,1000.17
2023-04-22T12:37:54.570Z,1000.18
2023-04-22T12:38:54.571Z,1000.20
2023-04-22T12:39:54.587Z,1000.15
2023-04-22T12:40:54.605Z,1000.18
2023-04-22T12:41:54.576Z,1000.17
2023-04-22T12:42:54.593Z,1000.08
2023-04-22T12:46:27.202Z,1000.05
2023-04-22T12:47:27.159Z,1000.10
2023-04-22T12:48:27.140Z,1000.10
2023-04-22T12:49:27.143Z,1000.12
2023-04-22T12:50:27.164Z,1000.14
2023-04-22T12:51:27.164Z,1000.09
2023-04-22T12:52:27.188Z,1000.10
2023-04-22T12:53:27.171Z,1000.10
2023-04-22T12:54:27.170Z,1000.15
2023-04-22T12:55:27.186Z,1000.08
2023-04-22T12:56:27.183Z,1000.13
2023-04-22T12:57:27.187Z,1000.09
2023-04-22T12:58:27.208Z,1000.10
2023-04-22T12:59:27.194Z,1000.13
2023-04-22T13:00:27.177Z,1000.14
2023-04-22T13:01:27.228Z,1000.09
2023-04-22T13:02:27.336Z,1000.08
2023-04-22T13:03:27.452Z,1000.10
2023-04-22T13:04:27.329Z,1000.09
2023-04-22T13:05:27.190Z,1000.04
2023-04-22T13:06:27.201Z,1000.07
2023-04-22T13:07:27.261Z,1000.06
2023-04-22T13:08:27.205Z,1000.09
2023-04-22T13:09:27.215Z,1000.05
2023-04-22T13:10:27.213Z,999.99
2023-04-22T13:11:27.212Z,1000.01
2023-04-22T13:12:27.232Z,1000.00
2023-04-22T13:13:27.245Z,999.98
2023-04-22T13:14:27.219Z,999.99
2023-04-22T13:15:27.223Z,999.95
2023-04-22T13:16:27.389Z,999.95
2023-04-22T13:17:27.264Z,999.98
2023-04-22T13:18:27.215Z,999.92
2023-04-22T13:20:27.234Z,999.97
2023-04-22T13:21:27.224Z,999.98
2023-04-22T13:22:27.289Z,999.98
2023-04-22T13:23:27.272Z,999.97
2023-04-22T13:24:27.267Z,1000.01
2023-04-22T13:25:27.267Z,1000.00
2023-04-22T13:26:27.278Z,999.94
2023-04-22T13:27:27.243Z,999.95
2023-04-22T13:28:27.432Z,999.94
2023-04-22T13:29:27.262Z,999.96
2023-04-22T13:30:27.264Z,999.93
2023-04-22T13:31:27.276Z,999.89
2023-04-22T13:32:27.284Z,999.90
2023-04-22T13:33:27.266Z,999.91
2023-04-22T13:34:27.273Z,999.93
2023-04-22T13:35:27.275Z,999.92
2023-04-22T13:36:27.286Z,999.90
2023-04-22T13:37:27.271Z,999.88
2023-04-22T13:38:27.286Z,999.89
2023-04-22T13:39:27.274Z,999.83
2023-04-22T13:40:27.380Z,999.80
2023-04-22T13:41:27.293Z,999.78
2023-04-22T13:42:27.294Z,999.72
2023-04-22T13:43:27.298Z,999.78
2023-04-22T13:44:27.319Z,999.76
2023-04-22T13:45:27.373Z,999.72
2023-04-22T13:46:27.304Z,999.74
2023-04-22T13:47:27.401Z,999.70
2023-04-22T13:48:27.328Z,999.72
2023-04-22T13:49:27.326Z,999.69
2023-04-22T13:50:27.338Z,999.70
2023-04-22T13:51:27.310Z,999.70
2023-04-22T13:52:27.309Z,999.63
2023-04-22T13:53:27.330Z,999.63
2023-04-22T13:54:27.330Z,999.63
2023-04-22T13:55:27.342Z,999.62
2023-04-22T13:56:27.360Z,999.61
2023-04-22T13:57:27.321Z,999.64
2023-04-22T13:58:27.355Z,999.63
2023-04-22T13:59:27.344Z,999.59
2023-04-22T14:00:27.351Z,999.58
2023-04-22T14:01:27.463Z,999.57
2023-04-22T14:02:27.462Z,999.61
2023-04-22T14:03:27.464Z,999.59
2023-04-22T14:04:27.378Z,999.53
2023-04-22T14:05:27.354Z,999.55
2023-04-22T14:06:27.371Z,999.52
2023-04-22T14:07:27.364Z,999.50
2023-04-22T14:08:27.372Z,999.52
2023-04-22T14:09:27.372Z,999.50
2023-04-22T14:10:28.722Z,999.55
2023-04-22T14:11:27.392Z,999.49
2023-04-22T14:12:27.399Z,999.47
2023-04-22T14:13:27.370Z,999.51
2023-04-22T14:14:27.393Z,999.51
2023-04-22T14:15:27.373Z,999.45
2023-04-22T14:16:27.386Z,999.45
2023-04-22T14:17:27.482Z,999.45
2023-04-22T14:18:27.419Z,999.44
2023-04-22T14:19:27.394Z,999.48
2023-04-22T14:20:27.440Z,999.41
2023-04-22T14:21:28.122Z,999.39
2023-04-22T14:22:27.399Z,999.37
2023-04-22T14:23:27.403Z,999.38
2023-04-22T14:24:27.398Z,999.41
2023-04-22T14:25:27.399Z,999.38
2023-04-22T14:26:27.405Z,999.32
2023-04-22T14:27:27.397Z,999.31
2023-04-22T14:28:28.371Z,999.32
2023-04-22T14:29:27.403Z,999.25
2023-04-22T14:30:27.448Z,999.26
2023-04-22T14:31:27.527Z,999.26
2023-04-22T14:32:27.430Z,999.28
2023-04-22T14:33:27.463Z,999.26
2023-04-22T14:34:27.583Z,999.33
2023-04-22T14:35:27.444Z,999.28
2023-04-22T14:36:27.434Z,999.30
2023-04-22T14:37:27.707Z,999.32
2023-04-22T14:38:27.435Z,999.29
2023-04-22T14:39:27.464Z,999.27
2023-04-22T14:40:27.468Z,999.26
2023-04-22T14:41:27.486Z,999.25
2023-04-22T14:42:27.463Z,999.26
2023-04-22T14:43:27.467Z,999.21
2023-04-22T14:44:27.534Z,999.21
2023-04-22T14:45:27.558Z,999.23
2023-04-22T14:46:27.520Z,999.25
2023-04-22T14:47:27.515Z,999.19
2023-04-22T14:48:27.491Z,999.16
2023-04-22T14:49:27.501Z,999.14
2023-04-22T14:50:27.526Z,999.16
2023-04-22T14:51:27.508Z,999.12
2023-04-22T14:52:27.541Z,999.15
2023-04-22T14:53:27.525Z,999.16
2023-04-22T14:54:28.083Z,999.13
2023-04-22T14:55:27.549Z,999.19
2023-04-22T14:56:27.544Z,999.18
2023-04-22T14:57:27.557Z,999.18
2023-04-22T14:58:27.557Z,999.13
2023-04-22T14:59:27.559Z,999.16
2023-04-22T15:00:27.581Z,999.17
2023-04-22T15:01:27.634Z,999.15
2023-04-22T15:02:27.706Z,999.22
2023-04-22T15:03:27.808Z,999.16
2023-04-22T15:04:27.665Z,999.09
2023-04-22T15:05:27.586Z,999.20
2023-04-22T15:06:27.591Z,999.16
2023-04-22T15:07:27.599Z,999.15
2023-04-22T15:08:27.599Z,999.12
2023-04-22T15:09:27.640Z,999.13
2023-04-22T15:10:27.647Z,999.13
2023-04-22T15:11:27.606Z,999.14
2023-04-22T15:12:27.620Z,999.10
2023-04-22T15:16:00.313Z,999.06
2023-04-22T15:17:00.136Z,999.13
2023-04-22T15:18:00.202Z,999.07
2023-04-22T15:19:00.162Z,999.07
2023-04-22T15:20:00.276Z,999.07
2023-04-22T15:21:00.159Z,999.03
2023-04-22T15:22:00.177Z,999.05
2023-04-22T15:23:00.173Z,999.06
2023-04-22T15:24:00.180Z,999.01
2023-04-22T15:25:00.181Z,999.06
2023-04-22T15:26:00.192Z,999.05
2023-04-22T15:27:00.267Z,999.08
2023-04-22T15:28:00.211Z,999.07
2023-04-22T15:29:00.192Z,999.14
2023-04-22T15:30:00.244Z,999.11
2023-04-22T15:31:00.240Z,999.09
2023-04-22T15:32:00.262Z,999.08
2023-04-22T15:33:00.249Z,999.09
2023-04-22T15:34:00.218Z,999.10
2023-04-22T15:35:00.230Z,999.11
2023-04-22T15:36:00.221Z,999.06
2023-04-22T15:37:00.223Z,999.05
2023-04-22T15:38:00.221Z,999.07
2023-04-22T15:39:00.222Z,999.07
2023-04-22T15:40:00.255Z,999.09
2023-04-22T15:41:00.282Z,999.08
2023-04-22T15:42:00.229Z,999.06
2023-04-22T15:43:00.246Z,999.04
2023-04-22T15:44:00.262Z,999.04
2023-04-22T15:45:00.262Z,999.05
2023-04-22T15:46:00.265Z,999.06
2023-04-22T15:47:00.299Z,999.07
2023-04-22T15:48:00.341Z,999.03
2023-04-22T15:49:00.280Z,999.05
2023-04-22T15:50:00.261Z,999.02
2023-04-22T15:51:00.275Z,999.02
2023-04-22T15:52:00.252Z,999.01
2023-04-22T15:53:00.278Z,999.04
2023-04-22T15:54:00.271Z,999.06
2023-04-22T15:55:00.279Z,999.04
2023-04-22T15:56:00.279Z,999.05
2023-04-22T15:57:00.277Z,999.06
2023-04-22T15:58:00.265Z,999.09
2023-04-22T15:59:00.270Z,999.08
2023-04-22T16:00:13.290Z,999.06
2023-04-22T16:11:56.379Z,999.18
2023-04-22T16:12:56.329Z,999.15
2023-04-22T16:13:56.346Z,999.22
2023-04-22T16:14:56.336Z,999.21
2023-04-22T16:15:56.339Z,999.22
2023-04-22T16:16:56.449Z,999.23
2023-04-22T16:17:56.482Z,999.26
2023-04-22T16:18:56.359Z,999.21
2023-04-22T16:19:56.323Z,999.24
2023-04-22T16:20:56.334Z,999.25
2023-04-22T16:21:56.322Z,999.32
2023-04-22T16:22:56.332Z,999.32
2023-04-22T16:23:56.327Z,999.31
2023-04-22T16:24:56.333Z,999.29
2023-04-22T16:25:56.353Z,999.34
2023-04-22T16:26:56.353Z,999.38
2023-04-22T16:27:56.333Z,999.38
2023-04-22T16:28:56.327Z,999.36
2023-04-22T16:29:56.340Z,999.38
2023-04-22T16:30:56.375Z,999.31
2023-04-22T16:31:56.331Z,999.32
2023-04-22T16:32:56.343Z,999.36
2023-04-22T16:33:56.342Z,999.34
2023-04-22T16:34:56.323Z,999.34
2023-04-22T16:35:56.324Z,999.39
2023-04-22T16:36:56.327Z,999.34
2023-04-22T16:37:56.349Z,999.33
2023-04-22T16:38:56.348Z,999.33
2023-04-22T16:39:56.327Z,999.38
2023-04-22T16:40:56.325Z,999.42